sensor_id;sensor_type;location;lat;lon;timestamp;P1;durP1;ratioP1;P2;durP2;ratioP2
59938;SDS011;45801;51.810;19.444;2023-08-31T00:02:13;11.30;;;5.60;;
59938;SDS011;45801;51.810;19.444;2023-08-31T00:04:39;10.10;;;5.10;;
59938;SDS011;45801;51.810;19.444;2023-08-31T00:07:05;10.60;;;7.20;;
59938;SDS011;45801;51.810;19.444;2023-08-31T00:09:30;10.40;;;6.80;;
59938;SDS011;45801;51.810;19.444;2023-08-31T00:11:56;12.30;;;8.00;;
59938;SDS011;45801;51.810;19.444;2023-08-31T00:14:25;11.20;;;7.70;;
59938;SDS011;45801;51.810;19.444;2023-08-31T00:16:52;12.70;;;9.00;;
59938;SDS011;45801;51.810;19.444;2023-08-31T00:19:18;11.80;;;8.90;;
59938;SDS011;45801;51.810;19.444;2023-08-31T00:21:44;13.10;;;9.70;;
59938;SDS011;45801;51.810;19.444;2023-08-31T00:24:10;12.80;;;9.50;;
59938;SDS011;45801;51.810;19.444;2023-08-31T00:26:36;12.40;;;8.00;;
59938;SDS011;45801;51.810;19.444;2023-08-31T00:29:09;12.50;;;9.30;;
59938;SDS011;45801;51.810;19.444;2023-08-31T00:31:41;12.60;;;9.30;;
59938;SDS011;45801;51.810;19.444;2023-08-31T00:34:10;12.40;;;9.30;;
59938;SDS011;45801;51.810;19.444;2023-08-31T00:36:40;12.30;;;9.30;;
59938;SDS011;45801;51.810;19.444;2023-08-31T00:39:06;12.70;;;9.30;;
59938;SDS011;45801;51.810;19.444;2023-08-31T00:41:36;12.90;;;9.90;;
59938;SDS011;45801;51.810;19.444;2023-08-31T00:44:02;13.00;;;9.50;;
59938;SDS011;45801;51.810;19.444;2023-08-31T00:46:30;13.00;;;8.90;;
59938;SDS011;45801;51.810;19.444;2023-08-31T00:48:57;12.50;;;8.90;;
59938;SDS011;45801;51.810;19.444;2023-08-31T00:51:24;12.60;;;8.70;;
59938;SDS011;45801;51.810;19.444;2023-08-31T00:53:50;12.40;;;8.40;;
59938;SDS011;45801;51.810;19.444;2023-08-31T00:56:20;13.60;;;9.60;;
59938;SDS011;45801;51.810;19.444;2023-08-31T00:58:46;11.90;;;8.80;;
59938;SDS011;45801;51.810;19.444;2023-08-31T01:04:14;13.10;;;9.20;;
59938;SDS011;45801;51.810;19.444;2023-08-31T01:07:04;11.90;;;9.10;;
59938;SDS011;45801;51.810;19.444;2023-08-31T01:09:53;12.50;;;9.90;;
59938;SDS011;45801;51.810;19.444;2023-08-31T01:12:44;12.30;;;9.40;;
59938;SDS011;45801;51.810;19.444;2023-08-31T01:15:36;10.50;;;6.60;;
59938;SDS011;45801;51.810;19.444;2023-08-31T01:18:06;12.20;;;8.20;;
59938;SDS011;45801;51.810;19.444;2023-08-31T01:20:40;12.40;;;9.20;;
59938;SDS011;45801;51.810;19.444;2023-08-31T01:23:11;12.90;;;8.90;;
59938;SDS011;45801;51.810;19.444;2023-08-31T01:25:41;12.80;;;8.10;;
59938;SDS011;45801;51.810;19.444;2023-08-31T01:28:09;12.20;;;8.10;;
59938;SDS011;45801;51.810;19.444;2023-08-31T01:30:36;11.60;;;7.90;;
59938;SDS011;45801;51.810;19.444;2023-08-31T01:33:02;11.60;;;8.20;;
59938;SDS011;45801;51.810;19.444;2023-08-31T01:35:29;11.40;;;8.10;;
59938;SDS011;45801;51.810;19.444;2023-08-31T01:38:03;11.10;;;8.70;;
59938;SDS011;45801;51.810;19.444;2023-08-31T01:43:18;12.50;;;8.20;;
59938;SDS011;45801;51.810;19.444;2023-08-31T01:45:47;10.90;;;7.70;;
59938;SDS011;45801;51.810;19.444;2023-08-31T01:48:14;11.70;;;8.40;;
59938;SDS011;45801;51.810;19.444;2023-08-31T01:50:40;11.20;;;7.70;;
59938;SDS011;45801;51.810;19.444;2023-08-31T01:53:06;11.10;;;8.40;;
59938;SDS011;45801;51.810;19.444;2023-08-31T01:55:32;12.90;;;8.00;;
59938;SDS011;45801;51.810;19.444;2023-08-31T01:57:58;11.30;;;7.70;;
59938;SDS011;45801;51.810;19.444;2023-08-31T02:00:24;10.90;;;7.60;;
59938;SDS011;45801;51.810;19.444;2023-08-31T02:02:51;12.00;;;8.20;;
59938;SDS011;45801;51.810;19.444;2023-08-31T02:05:17;12.40;;;7.80;;
59938;SDS011;45801;51.810;19.444;2023-08-31T02:07:44;12.30;;;7.70;;
59938;SDS011;45801;51.810;19.444;2023-08-31T02:10:10;12.50;;;8.60;;
59938;SDS011;45801;51.810;19.444;2023-08-31T02:12:36;12.50;;;9.30;;
59938;SDS011;45801;51.810;19.444;2023-08-31T02:15:05;13.70;;;9.20;;
59938;SDS011;45801;51.810;19.444;2023-08-31T02:17:32;12.90;;;9.00;;
59938;SDS011;45801;51.810;19.444;2023-08-31T02:19:59;12.90;;;9.50;;
59938;SDS011;45801;51.810;19.444;2023-08-31T02:22:27;13.10;;;10.10;;
59938;SDS011;45801;51.810;19.444;2023-08-31T02:24:52;13.20;;;9.30;;
59938;SDS011;45801;51.810;19.444;2023-08-31T02:27:18;14.40;;;9.20;;
59938;SDS011;45801;51.810;19.444;2023-08-31T02:29:44;13.30;;;9.20;;
59938;SDS011;45801;51.810;19.444;2023-08-31T02:32:10;12.50;;;9.30;;
59938;SDS011;45801;51.810;19.444;2023-08-31T02:34:36;13.80;;;9.50;;
59938;SDS011;45801;51.810;19.444;2023-08-31T02:37:02;13.30;;;10.00;;
59938;SDS011;45801;51.810;19.444;2023-08-31T02:39:28;13.10;;;9.90;;
59938;SDS011;45801;51.810;19.444;2023-08-31T02:41:54;13.20;;;9.80;;
59938;SDS011;45801;51.810;19.444;2023-08-31T02:44:19;13.20;;;10.10;;
59938;SDS011;45801;51.810;19.444;2023-08-31T02:46:45;14.00;;;10.50;;
59938;SDS011;45801;51.810;19.444;2023-08-31T02:49:11;12.80;;;9.80;;
59938;SDS011;45801;51.810;19.444;2023-08-31T02:51:37;12.70;;;10.30;;
59938;SDS011;45801;51.810;19.444;2023-08-31T02:54:03;14.70;;;11.20;;
59938;SDS011;45801;51.810;19.444;2023-08-31T02:56:29;15.80;;;11.00;;
59938;SDS011;45801;51.810;19.444;2023-08-31T02:58:55;14.80;;;11.60;;
59938;SDS011;45801;51.810;19.444;2023-08-31T03:01:21;14.60;;;11.50;;
59938;SDS011;45801;51.810;19.444;2023-08-31T03:03:49;15.30;;;11.10;;
59938;SDS011;45801;51.810;19.444;2023-08-31T03:06:15;13.50;;;10.70;;
59938;SDS011;45801;51.810;19.444;2023-08-31T03:08:41;14.80;;;10.70;;
59938;SDS011;45801;51.810;19.444;2023-08-31T03:11:07;13.50;;;11.00;;
59938;SDS011;45801;51.810;19.444;2023-08-31T03:13:33;14.80;;;11.10;;
59938;SDS011;45801;51.810;19.444;2023-08-31T03:15:59;14.20;;;11.30;;
59938;SDS011;45801;51.810;19.444;2023-08-31T03:18:25;14.90;;;10.40;;
59938;SDS011;45801;51.810;19.444;2023-08-31T03:20:51;14.50;;;11.80;;
59938;SDS011;45801;51.810;19.444;2023-08-31T03:23:17;15.30;;;11.40;;
59938;SDS011;45801;51.810;19.444;2023-08-31T03:25:43;14.90;;;10.70;;
59938;SDS011;45801;51.810;19.444;2023-08-31T03:28:09;14.10;;;10.70;;
59938;SDS011;45801;51.810;19.444;2023-08-31T03:30:35;12.90;;;10.60;;
59938;SDS011;45801;51.810;19.444;2023-08-31T03:33:09;14.40;;;10.70;;
59938;SDS011;45801;51.810;19.444;2023-08-31T03:35:35;13.80;;;10.40;;
59938;SDS011;45801;51.810;19.444;2023-08-31T03:38:01;13.70;;;10.50;;
59938;SDS011;45801;51.810;19.444;2023-08-31T03:40:27;13.70;;;10.30;;
59938;SDS011;45801;51.810;19.444;2023-08-31T03:42:53;15.00;;;11.60;;
59938;SDS011;45801;51.810;19.444;2023-08-31T03:45:19;14.80;;;11.10;;
59938;SDS011;45801;51.810;19.444;2023-08-31T03:47:45;15.20;;;12.00;;
59938;SDS011;45801;51.810;19.444;2023-08-31T03:50:11;13.90;;;10.90;;
59938;SDS011;45801;51.810;19.444;2023-08-31T03:52:37;14.60;;;10.80;;
59938;SDS011;45801;51.810;19.444;2023-08-31T03:55:03;13.80;;;10.40;;
59938;SDS011;45801;51.810;19.444;2023-08-31T03:57:29;14.40;;;9.90;;
59938;SDS011;45801;51.810;19.444;2023-08-31T03:59:55;13.40;;;10.00;;
59938;SDS011;45801;51.810;19.444;2023-08-31T04:02:21;13.60;;;10.40;;
59938;SDS011;45801;51.810;19.444;2023-08-31T04:04:48;14.00;;;10.80;;
59938;SDS011;45801;51.810;19.444;2023-08-31T04:07:14;14.00;;;10.40;;
59938;SDS011;45801;51.810;19.444;2023-08-31T04:09:40;14.10;;;10.50;;
59938;SDS011;45801;51.810;19.444;2023-08-31T04:12:06;13.70;;;11.00;;
59938;SDS011;45801;51.810;19.444;2023-08-31T04:14:32;12.80;;;10.00;;
59938;SDS011;45801;51.810;19.444;2023-08-31T04:16:58;13.00;;;9.80;;
59938;SDS011;45801;51.810;19.444;2023-08-31T04:19:24;12.70;;;9.80;;
59938;SDS011;45801;51.810;19.444;2023-08-31T04:21:50;13.80;;;10.20;;
59938;SDS011;45801;51.810;19.444;2023-08-31T04:24:15;14.20;;;10.30;;
59938;SDS011;45801;51.810;19.444;2023-08-31T04:26:42;13.90;;;10.40;;
59938;SDS011;45801;51.810;19.444;2023-08-31T04:29:08;15.40;;;9.70;;
59938;SDS011;45801;51.810;19.444;2023-08-31T04:31:34;14.90;;;9.60;;
59938;SDS011;45801;51.810;19.444;2023-08-31T04:34:00;12.50;;;8.40;;
59938;SDS011;45801;51.810;19.444;2023-08-31T04:36:26;12.70;;;9.70;;
59938;SDS011;45801;51.810;19.444;2023-08-31T04:38:51;12.70;;;9.00;;
59938;SDS011;45801;51.810;19.444;2023-08-31T04:41:18;11.90;;;8.80;;
59938;SDS011;45801;51.810;19.444;2023-08-31T04:43:44;12.70;;;8.60;;
59938;SDS011;45801;51.810;19.444;2023-08-31T04:46:13;11.70;;;7.80;;
59938;SDS011;45801;51.810;19.444;2023-08-31T04:48:40;11.20;;;7.70;;
59938;SDS011;45801;51.810;19.444;2023-08-31T04:51:06;12.30;;;8.10;;
59938;SDS011;45801;51.810;19.444;2023-08-31T04:53:32;12.50;;;8.00;;
59938;SDS011;45801;51.810;19.444;2023-08-31T04:55:57;13.90;;;8.10;;
59938;SDS011;45801;51.810;19.444;2023-08-31T04:58:24;12.50;;;7.50;;
59938;SDS011;45801;51.810;19.444;2023-08-31T05:00:53;11.00;;;7.00;;
59938;SDS011;45801;51.810;19.444;2023-08-31T05:03:19;12.40;;;7.90;;
59938;SDS011;45801;51.810;19.444;2023-08-31T05:05:45;13.30;;;7.90;;
59938;SDS011;45801;51.810;19.444;2023-08-31T05:08:10;11.40;;;7.80;;
59938;SDS011;45801;51.810;19.444;2023-08-31T05:10:36;11.80;;;8.20;;
59938;SDS011;45801;51.810;19.444;2023-08-31T05:13:02;11.70;;;7.90;;
59938;SDS011;45801;51.810;19.444;2023-08-31T05:15:29;14.00;;;8.10;;
59938;SDS011;45801;51.810;19.444;2023-08-31T05:17:55;15.20;;;9.00;;
59938;SDS011;45801;51.810;19.444;2023-08-31T05:20:21;12.00;;;8.80;;
59938;SDS011;45801;51.810;19.444;2023-08-31T05:22:49;12.90;;;8.70;;
59938;SDS011;45801;51.810;19.444;2023-08-31T05:25:14;13.90;;;9.00;;
59938;SDS011;45801;51.810;19.444;2023-08-31T05:27:40;13.80;;;9.70;;
59938;SDS011;45801;51.810;19.444;2023-08-31T05:30:06;12.50;;;9.40;;
59938;SDS011;45801;51.810;19.444;2023-08-31T05:32:32;13.40;;;9.50;;
59938;SDS011;45801;51.810;19.444;2023-08-31T05:34:58;13.80;;;10.10;;
59938;SDS011;45801;51.810;19.444;2023-08-31T05:37:25;12.90;;;10.00;;
59938;SDS011;45801;51.810;19.444;2023-08-31T05:39:51;13.00;;;9.30;;
59938;SDS011;45801;51.810;19.444;2023-08-31T05:42:17;13.50;;;10.10;;
59938;SDS011;45801;51.810;19.444;2023-08-31T05:44:43;15.00;;;10.50;;
59938;SDS011;45801;51.810;19.444;2023-08-31T05:47:10;15.30;;;10.10;;
59938;SDS011;45801;51.810;19.444;2023-08-31T05:49:35;16.30;;;10.40;;
59938;SDS011;45801;51.810;19.444;2023-08-31T05:52:01;14.20;;;10.80;;
59938;SDS011;45801;51.810;19.444;2023-08-31T05:54:27;12.40;;;9.50;;
59938;SDS011;45801;51.810;19.444;2023-08-31T05:56:53;13.40;;;9.90;;
59938;SDS011;45801;51.810;19.444;2023-08-31T05:59:19;13.60;;;9.60;;
59938;SDS011;45801;51.810;19.444;2023-08-31T06:01:45;15.50;;;10.20;;
59938;SDS011;45801;51.810;19.444;2023-08-31T06:04:12;15.50;;;10.60;;
59938;SDS011;45801;51.810;19.444;2023-08-31T06:06:37;13.60;;;9.60;;
59938;SDS011;45801;51.810;19.444;2023-08-31T06:09:03;14.20;;;10.10;;
59938;SDS011;45801;51.810;19.444;2023-08-31T06:11:32;15.90;;;9.90;;
59938;SDS011;45801;51.810;19.444;2023-08-31T06:13:58;13.10;;;9.70;;
59938;SDS011;45801;51.810;19.444;2023-08-31T06:16:24;14.40;;;9.50;;
59938;SDS011;45801;51.810;19.444;2023-08-31T06:18:50;14.60;;;9.10;;
59938;SDS011;45801;51.810;19.444;2023-08-31T06:21:17;14.30;;;8.70;;
59938;SDS011;45801;51.810;19.444;2023-08-31T06:23:42;14.70;;;9.30;;
59938;SDS011;45801;51.810;19.444;2023-08-31T06:26:08;13.70;;;9.40;;
59938;SDS011;45801;51.810;19.444;2023-08-31T06:28:34;13.10;;;9.10;;
59938;SDS011;45801;51.810;19.444;2023-08-31T06:31:00;13.40;;;8.80;;
59938;SDS011;45801;51.810;19.444;2023-08-31T06:33:25;13.60;;;8.30;;
59938;SDS011;45801;51.810;19.444;2023-08-31T06:35:51;13.10;;;8.70;;
59938;SDS011;45801;51.810;19.444;2023-08-31T06:38:17;12.90;;;7.80;;
59938;SDS011;45801;51.810;19.444;2023-08-31T06:40:44;11.20;;;7.30;;
59938;SDS011;45801;51.810;19.444;2023-08-31T06:43:10;13.40;;;8.60;;
59938;SDS011;45801;51.810;19.444;2023-08-31T06:45:36;13.40;;;7.90;;
59938;SDS011;45801;51.810;19.444;2023-08-31T06:48:02;12.70;;;7.80;;
59938;SDS011;45801;51.810;19.444;2023-08-31T06:50:28;11.20;;;7.30;;
59938;SDS011;45801;51.810;19.444;2023-08-31T06:52:54;11.50;;;7.30;;
59938;SDS011;45801;51.810;19.444;2023-08-31T06:55:20;12.40;;;8.20;;
59938;SDS011;45801;51.810;19.444;2023-08-31T06:57:45;11.30;;;8.20;;
59938;SDS011;45801;51.810;19.444;2023-08-31T07:00:11;11.60;;;7.00;;
59938;SDS011;45801;51.810;19.444;2023-08-31T07:02:40;11.20;;;7.10;;
59938;SDS011;45801;51.810;19.444;2023-08-31T07:05:07;10.70;;;6.70;;
59938;SDS011;45801;51.810;19.444;2023-08-31T07:07:34;10.70;;;6.30;;
59938;SDS011;45801;51.810;19.444;2023-08-31T07:10:00;10.60;;;6.20;;
59938;SDS011;45801;51.810;19.444;2023-08-31T07:12:26;9.40;;;6.00;;
59938;SDS011;45801;51.810;19.444;2023-08-31T07:14:51;9.60;;;6.40;;
59938;SDS011;45801;51.810;19.444;2023-08-31T07:17:18;10.30;;;6.10;;
59938;SDS011;45801;51.810;19.444;2023-08-31T07:19:44;10.90;;;6.90;;
59938;SDS011;45801;51.810;19.444;2023-08-31T07:22:11;10.70;;;7.10;;
59938;SDS011;45801;51.810;19.444;2023-08-31T07:24:37;10.80;;;6.70;;
59938;SDS011;45801;51.810;19.444;2023-08-31T07:27:04;9.70;;;6.00;;
59938;SDS011;45801;51.810;19.444;2023-08-31T07:29:30;9.70;;;6.20;;
59938;SDS011;45801;51.810;19.444;2023-08-31T07:31:57;9.70;;;6.00;;
59938;SDS011;45801;51.810;19.444;2023-08-31T07:34:23;9.80;;;5.80;;
59938;SDS011;45801;51.810;19.444;2023-08-31T07:36:49;10.50;;;5.70;;
59938;SDS011;45801;51.810;19.444;2023-08-31T07:39:15;8.80;;;5.50;;
59938;SDS011;45801;51.810;19.444;2023-08-31T07:41:43;8.20;;;4.70;;
59938;SDS011;45801;51.810;19.444;2023-08-31T07:44:15;8.60;;;5.00;;
59938;SDS011;45801;51.810;19.444;2023-08-31T07:46:41;8.60;;;5.50;;
59938;SDS011;45801;51.810;19.444;2023-08-31T07:49:06;7.40;;;4.20;;
59938;SDS011;45801;51.810;19.444;2023-08-31T07:51:32;8.20;;;4.60;;
59938;SDS011;45801;51.810;19.444;2023-08-31T07:53:59;8.00;;;3.80;;
59938;SDS011;45801;51.810;19.444;2023-08-31T07:56:25;8.80;;;4.20;;
59938;SDS011;45801;51.810;19.444;2023-08-31T07:58:51;7.60;;;4.60;;
59938;SDS011;45801;51.810;19.444;2023-08-31T08:01:17;8.10;;;4.10;;
59938;SDS011;45801;51.810;19.444;2023-08-31T08:03:43;9.00;;;4.30;;
59938;SDS011;45801;51.810;19.444;2023-08-31T08:06:09;7.60;;;4.00;;
59938;SDS011;45801;51.810;19.444;2023-08-31T08:08:34;7.70;;;4.00;;
59938;SDS011;45801;51.810;19.444;2023-08-31T08:11:00;6.40;;;3.40;;
59938;SDS011;45801;51.810;19.444;2023-08-31T08:13:28;7.20;;;3.50;;
59938;SDS011;45801;51.810;19.444;2023-08-31T08:15:54;7.70;;;3.90;;
59938;SDS011;45801;51.810;19.444;2023-08-31T08:18:20;7.20;;;3.80;;
59938;SDS011;45801;51.810;19.444;2023-08-31T08:20:49;7.80;;;3.50;;
59938;SDS011;45801;51.810;19.444;2023-08-31T08:23:16;8.10;;;3.40;;
59938;SDS011;45801;51.810;19.444;2023-08-31T08:25:42;6.50;;;3.30;;
59938;SDS011;45801;51.810;19.444;2023-08-31T08:28:08;6.70;;;3.20;;
59938;SDS011;45801;51.810;19.444;2023-08-31T08:30:34;7.30;;;3.40;;
59938;SDS011;45801;51.810;19.444;2023-08-31T08:33:00;6.50;;;3.40;;
59938;SDS011;45801;51.810;19.444;2023-08-31T08:35:26;6.10;;;2.60;;
59938;SDS011;45801;51.810;19.444;2023-08-31T08:37:57;7.60;;;2.90;;
59938;SDS011;45801;51.810;19.444;2023-08-31T08:40:24;7.30;;;3.00;;
59938;SDS011;45801;51.810;19.444;2023-08-31T08:42:50;6.90;;;2.50;;
59938;SDS011;45801;51.810;19.444;2023-08-31T08:45:18;6.50;;;3.00;;
59938;SDS011;45801;51.810;19.444;2023-08-31T08:47:46;6.00;;;2.80;;
59938;SDS011;45801;51.810;19.444;2023-08-31T08:50:12;6.20;;;2.70;;
59938;SDS011;45801;51.810;19.444;2023-08-31T08:52:39;7.00;;;3.00;;
59938;SDS011;45801;51.810;19.444;2023-08-31T08:55:07;6.80;;;2.60;;
59938;SDS011;45801;51.810;19.444;2023-08-31T08:57:38;6.90;;;2.70;;
59938;SDS011;45801;51.810;19.444;2023-08-31T09:00:04;7.10;;;3.00;;
59938;SDS011;45801;51.810;19.444;2023-08-31T09:02:30;6.60;;;2.80;;
59938;SDS011;45801;51.810;19.444;2023-08-31T09:04:56;6.60;;;2.80;;
59938;SDS011;45801;51.810;19.444;2023-08-31T09:07:22;6.00;;;2.90;;
59938;SDS011;45801;51.810;19.444;2023-08-31T09:09:52;6.20;;;2.90;;
59938;SDS011;45801;51.810;19.444;2023-08-31T09:12:22;6.30;;;2.70;;
59938;SDS011;45801;51.810;19.444;2023-08-31T09:14:56;6.30;;;2.80;;
59938;SDS011;45801;51.810;19.444;2023-08-31T09:17:23;6.80;;;2.50;;
59938;SDS011;45801;51.810;19.444;2023-08-31T09:19:58;6.60;;;3.00;;
59938;SDS011;45801;51.810;19.444;2023-08-31T09:22:26;6.50;;;2.80;;
59938;SDS011;45801;51.810;19.444;2023-08-31T09:24:55;7.20;;;2.90;;
59938;SDS011;45801;51.810;19.444;2023-08-31T09:27:21;7.20;;;2.80;;
59938;SDS011;45801;51.810;19.444;2023-08-31T09:29:48;6.70;;;3.40;;
59938;SDS011;45801;51.810;19.444;2023-08-31T09:32:17;5.80;;;3.00;;
59938;SDS011;45801;51.810;19.444;2023-08-31T09:34:43;6.70;;;2.70;;
59938;SDS011;45801;51.810;19.444;2023-08-31T09:37:10;6.40;;;2.80;;
59938;SDS011;45801;51.810;19.444;2023-08-31T09:39:40;8.00;;;3.10;;
59938;SDS011;45801;51.810;19.444;2023-08-31T09:42:08;7.50;;;3.30;;
59938;SDS011;45801;51.810;19.444;2023-08-31T09:44:34;6.40;;;3.00;;
59938;SDS011;45801;51.810;19.444;2023-08-31T09:47:05;6.60;;;3.20;;
59938;SDS011;45801;51.810;19.444;2023-08-31T09:49:31;7.30;;;3.20;;
59938;SDS011;45801;51.810;19.444;2023-08-31T09:51:58;5.50;;;2.70;;
59938;SDS011;45801;51.810;19.444;2023-08-31T09:54:29;7.80;;;2.90;;
59938;SDS011;45801;51.810;19.444;2023-08-31T09:56:56;7.30;;;2.80;;
59938;SDS011;45801;51.810;19.444;2023-08-31T09:59:24;7.50;;;2.90;;
59938;SDS011;45801;51.810;19.444;2023-08-31T10:01:52;6.40;;;2.90;;
59938;SDS011;45801;51.810;19.444;2023-08-31T10:04:18;5.90;;;3.10;;
59938;SDS011;45801;51.810;19.444;2023-08-31T10:06:44;5.40;;;2.70;;
59938;SDS011;45801;51.810;19.444;2023-08-31T10:09:10;6.80;;;2.80;;
59938;SDS011;45801;51.810;19.444;2023-08-31T10:11:40;5.90;;;3.20;;
59938;SDS011;45801;51.810;19.444;2023-08-31T10:14:11;9.00;;;3.40;;
59938;SDS011;45801;51.810;19.444;2023-08-31T10:16:40;6.10;;;3.10;;
59938;SDS011;45801;51.810;19.444;2023-08-31T10:19:09;7.10;;;3.70;;
59938;SDS011;45801;51.810;19.444;2023-08-31T10:21:35;6.90;;;3.80;;
59938;SDS011;45801;51.810;19.444;2023-08-31T10:24:01;6.70;;;2.80;;
59938;SDS011;45801;51.810;19.444;2023-08-31T10:26:27;6.70;;;3.10;;
59938;SDS011;45801;51.810;19.444;2023-08-31T10:28:57;8.10;;;3.50;;
59938;SDS011;45801;51.810;19.444;2023-08-31T10:31:28;7.70;;;3.40;;
59938;SDS011;45801;51.810;19.444;2023-08-31T10:33:56;9.20;;;3.50;;
59938;SDS011;45801;51.810;19.444;2023-08-31T10:36:37;6.80;;;3.80;;
59938;SDS011;45801;51.810;19.444;2023-08-31T10:39:13;7.50;;;3.80;;
59938;SDS011;45801;51.810;19.444;2023-08-31T10:41:41;6.90;;;3.20;;
59938;SDS011;45801;51.810;19.444;2023-08-31T10:47:07;8.40;;;3.90;;
59938;SDS011;45801;51.810;19.444;2023-08-31T10:49:33;6.90;;;3.90;;
59938;SDS011;45801;51.810;19.444;2023-08-31T10:52:15;6.80;;;3.30;;
59938;SDS011;45801;51.810;19.444;2023-08-31T10:54:51;7.00;;;3.60;;
59938;SDS011;45801;51.810;19.444;2023-08-31T10:57:28;7.10;;;3.70;;
59938;SDS011;45801;51.810;19.444;2023-08-31T10:59:55;6.70;;;3.40;;
59938;SDS011;45801;51.810;19.444;2023-08-31T11:02:28;7.30;;;3.40;;
59938;SDS011;45801;51.810;19.444;2023-08-31T11:05:06;7.50;;;3.30;;
59938;SDS011;45801;51.810;19.444;2023-08-31T11:07:32;5.90;;;2.90;;
59938;SDS011;45801;51.810;19.444;2023-08-31T11:10:07;6.90;;;3.70;;
59938;SDS011;45801;51.810;19.444;2023-08-31T11:12:41;8.00;;;4.00;;
59938;SDS011;45801;51.810;19.444;2023-08-31T11:15:07;8.70;;;4.10;;
59938;SDS011;45801;51.810;19.444;2023-08-31T11:17:36;14.30;;;5.90;;
59938;SDS011;45801;51.810;19.444;2023-08-31T11:20:04;11.70;;;6.30;;
59938;SDS011;45801;51.810;19.444;2023-08-31T11:22:31;10.50;;;6.50;;
59938;SDS011;45801;51.810;19.444;2023-08-31T11:24:57;13.50;;;6.50;;
59938;SDS011;45801;51.810;19.444;2023-08-31T11:27:24;10.60;;;6.70;;
59938;SDS011;45801;51.810;19.444;2023-08-31T11:29:52;9.60;;;5.00;;
59938;SDS011;45801;51.810;19.444;2023-08-31T11:32:17;9.80;;;6.40;;
59938;SDS011;45801;51.810;19.444;2023-08-31T11:34:44;10.70;;;6.90;;
59938;SDS011;45801;51.810;19.444;2023-08-31T11:37:11;9.30;;;5.70;;
59938;SDS011;45801;51.810;19.444;2023-08-31T11:39:42;11.00;;;6.20;;
59938;SDS011;45801;51.810;19.444;2023-08-31T11:42:13;10.00;;;7.00;;
59938;SDS011;45801;51.810;19.444;2023-08-31T11:44:41;9.60;;;7.10;;
59938;SDS011;45801;51.810;19.444;2023-08-31T11:47:08;11.30;;;7.10;;
59938;SDS011;45801;51.810;19.444;2023-08-31T11:49:34;9.10;;;6.50;;
59938;SDS011;45801;51.810;19.444;2023-08-31T11:52:06;11.20;;;7.00;;
59938;SDS011;45801;51.810;19.444;2023-08-31T11:54:33;9.30;;;7.30;;
59938;SDS011;45801;51.810;19.444;2023-08-31T11:56:59;10.00;;;7.30;;
59938;SDS011;45801;51.810;19.444;2023-08-31T11:59:27;10.70;;;7.20;;
59938;SDS011;45801;51.810;19.444;2023-08-31T12:01:53;9.30;;;7.00;;
59938;SDS011;45801;51.810;19.444;2023-08-31T12:04:22;9.80;;;7.30;;
59938;SDS011;45801;51.810;19.444;2023-08-31T12:06:59;10.80;;;8.20;;
59938;SDS011;45801;51.810;19.444;2023-08-31T12:09:30;10.40;;;7.50;;
59938;SDS011;45801;51.810;19.444;2023-08-31T12:11:57;8.80;;;5.70;;
59938;SDS011;45801;51.810;19.444;2023-08-31T12:14:23;9.40;;;6.20;;
59938;SDS011;45801;51.810;19.444;2023-08-31T12:16:52;7.90;;;5.60;;
59938;SDS011;45801;51.810;19.444;2023-08-31T12:19:29;12.00;;;6.80;;
59938;SDS011;45801;51.810;19.444;2023-08-31T12:21:57;9.30;;;6.20;;
59938;SDS011;45801;51.810;19.444;2023-08-31T12:24:24;8.10;;;5.40;;
59938;SDS011;45801;51.810;19.444;2023-08-31T12:26:50;8.10;;;5.80;;
59938;SDS011;45801;51.810;19.444;2023-08-31T12:29:19;9.50;;;6.20;;
59938;SDS011;45801;51.810;19.444;2023-08-31T12:31:45;10.20;;;7.20;;
59938;SDS011;45801;51.810;19.444;2023-08-31T12:34:11;10.60;;;7.00;;
59938;SDS011;45801;51.810;19.444;2023-08-31T12:36:38;9.40;;;6.60;;
59938;SDS011;45801;51.810;19.444;2023-08-31T12:39:23;10.20;;;6.40;;
59938;SDS011;45801;51.810;19.444;2023-08-31T12:41:49;9.20;;;6.20;;
59938;SDS011;45801;51.810;19.444;2023-08-31T12:44:15;9.50;;;7.50;;
59938;SDS011;45801;51.810;19.444;2023-08-31T12:46:41;9.90;;;5.40;;
59938;SDS011;45801;51.810;19.444;2023-08-31T12:49:07;8.60;;;6.40;;
59938;SDS011;45801;51.810;19.444;2023-08-31T12:51:33;8.80;;;5.60;;
59938;SDS011;45801;51.810;19.444;2023-08-31T12:53:58;8.20;;;5.50;;
59938;SDS011;45801;51.810;19.444;2023-08-31T12:56:24;8.40;;;5.70;;
59938;SDS011;45801;51.810;19.444;2023-08-31T12:58:51;8.00;;;6.10;;
59938;SDS011;45801;51.810;19.444;2023-08-31T13:01:18;7.50;;;5.30;;
59938;SDS011;45801;51.810;19.444;2023-08-31T13:03:45;8.30;;;5.60;;
59938;SDS011;45801;51.810;19.444;2023-08-31T13:06:13;9.00;;;5.40;;
59938;SDS011;45801;51.810;19.444;2023-08-31T13:08:40;8.10;;;5.60;;
59938;SDS011;45801;51.810;19.444;2023-08-31T13:11:06;7.30;;;5.30;;
59938;SDS011;45801;51.810;19.444;2023-08-31T13:13:32;7.30;;;5.20;;
59938;SDS011;45801;51.810;19.444;2023-08-31T13:15:58;9.10;;;5.10;;
59938;SDS011;45801;51.810;19.444;2023-08-31T13:18:24;7.60;;;5.10;;
59938;SDS011;45801;51.810;19.444;2023-08-31T13:20:50;7.20;;;4.60;;
59938;SDS011;45801;51.810;19.444;2023-08-31T13:23:20;7.30;;;5.10;;
59938;SDS011;45801;51.810;19.444;2023-08-31T13:25:47;6.70;;;4.00;;
59938;SDS011;45801;51.810;19.444;2023-08-31T13:28:13;6.50;;;4.00;;
59938;SDS011;45801;51.810;19.444;2023-08-31T13:30:39;7.50;;;4.00;;
59938;SDS011;45801;51.810;19.444;2023-08-31T13:33:06;5.70;;;3.40;;
59938;SDS011;45801;51.810;19.444;2023-08-31T13:35:32;6.60;;;3.60;;
59938;SDS011;45801;51.810;19.444;2023-08-31T13:37:59;6.90;;;4.10;;
59938;SDS011;45801;51.810;19.444;2023-08-31T13:40:27;5.70;;;3.40;;
59938;SDS011;45801;51.810;19.444;2023-08-31T13:42:56;6.10;;;3.50;;
59938;SDS011;45801;51.810;19.444;2023-08-31T13:45:25;6.50;;;3.60;;
59938;SDS011;45801;51.810;19.444;2023-08-31T13:47:51;6.00;;;3.60;;
59938;SDS011;45801;51.810;19.444;2023-08-31T13:50:17;6.70;;;4.10;;
59938;SDS011;45801;51.810;19.444;2023-08-31T13:52:43;6.80;;;4.00;;
59938;SDS011;45801;51.810;19.444;2023-08-31T13:55:10;7.50;;;4.60;;
59938;SDS011;45801;51.810;19.444;2023-08-31T13:57:36;7.40;;;4.50;;
59938;SDS011;45801;51.810;19.444;2023-08-31T14:00:03;6.50;;;4.20;;
59938;SDS011;45801;51.810;19.444;2023-08-31T14:02:30;7.00;;;4.40;;
59938;SDS011;45801;51.810;19.444;2023-08-31T14:04:56;6.90;;;4.30;;
59938;SDS011;45801;51.810;19.444;2023-08-31T14:07:22;8.40;;;5.00;;
59938;SDS011;45801;51.810;19.444;2023-08-31T14:09:48;7.30;;;4.50;;
59938;SDS011;45801;51.810;19.444;2023-08-31T14:12:14;7.10;;;4.20;;
59938;SDS011;45801;51.810;19.444;2023-08-31T14:14:40;6.90;;;4.60;;
59938;SDS011;45801;51.810;19.444;2023-08-31T14:17:08;6.30;;;3.80;;
59938;SDS011;45801;51.810;19.444;2023-08-31T14:19:34;6.50;;;3.60;;
59938;SDS011;45801;51.810;19.444;2023-08-31T14:22:01;6.10;;;3.80;;
59938;SDS011;45801;51.810;19.444;2023-08-31T14:24:29;6.70;;;3.60;;
59938;SDS011;45801;51.810;19.444;2023-08-31T14:26:55;6.80;;;2.90;;
59938;SDS011;45801;51.810;19.444;2023-08-31T14:29:21;5.50;;;3.10;;
59938;SDS011;45801;51.810;19.444;2023-08-31T14:31:47;7.30;;;3.30;;
59938;SDS011;45801;51.810;19.444;2023-08-31T14:34:12;5.90;;;3.10;;
59938;SDS011;45801;51.810;19.444;2023-08-31T14:36:38;6.20;;;3.10;;